sensor_id;sensor_type;location;lat;lon;timestamp;pressure;altitude;pressure_sealevel;temperature;humidity
14269;BME280;7218;51.480;7.006;2023-04-27T00:00:49;100945.16;;;5.07;93.35
14269;BME280;7218;51.480;7.006;2023-04-27T00:03:15;100950.13;;;4.92;92.85
14269;BME280;7218;51.480;7.006;2023-04-27T00:05:42;100942.28;;;4.86;93.26
14269;BME280;7218;51.480;7.006;2023-04-27T00:08:08;100943.19;;;4.88;93.21
14269;BME280;7218;51.480;7.006;2023-04-27T00:10:35;100941.34;;;4.81;93.73
14269;BME280;7218;51.480;7.006;2023-04-27T00:13:01;100947.41;;;4.84;94.39
14269;BME280;7218;51.480;7.006;2023-04-27T00:15:28;100947.38;;;4.81;93.51
14269;BME280;7218;51.480;7.006;2023-04-27T00:17:56;100950.13;;;4.93;93.53
14269;BME280;7218;51.480;7.006;2023-04-27T00:20:23;100946.47;;;4.78;94.26
14269;BME280;7218;51.480;7.006;2023-04-27T00:22:49;100950.78;;;4.77;94.63
14269;BME280;7218;51.480;7.006;2023-04-27T00:25:16;100953.25;;;4.71;94.84
14269;BME280;7218;51.480;7.006;2023-04-27T00:27:42;100948.91;;;4.68;94.92
14269;BME280;7218;51.480;7.006;2023-04-27T00:30:09;100947.88;;;4.59;95.30
14269;BME280;7218;51.480;7.006;2023-04-27T00:32:36;100954.88;;;4.63;96.28
14269;BME280;7218;51.480;7.006;2023-04-27T00:35:04;100948.16;;;4.75;96.50
14269;BME280;7218;51.480;7.006;2023-04-27T00:37:31;100950.63;;;4.66;96.45
14269;BME280;7218;51.480;7.006;2023-04-27T00:39:57;100955.72;;;4.63;96.37
14269;BME280;7218;51.480;7.006;2023-04-27T00:42:24;100954.81;;;4.60;96.49
14269;BME280;7218;51.480;7.006;2023-04-27T00:44:50;100962.38;;;4.49;96.74
14269;BME280;7218;51.480;7.006;2023-04-27T00:47:17;100963.13;;;4.44;98.43
14269;BME280;7218;51.480;7.006;2023-04-27T00:49:44;100963.97;;;4.41;98.01
14269;BME280;7218;51.480;7.006;2023-04-27T00:52:12;100964.00;;;4.44;98.17
14269;BME280;7218;51.480;7.006;2023-04-27T00:54:38;100960.41;;;4.33;98.61
14269;BME280;7218;51.480;7.006;2023-04-27T00:57:05;100963.75;;;4.29;98.89
14269;BME280;7218;51.480;7.006;2023-04-27T00:59:31;100958.47;;;4.21;98.26
14269;BME280;7218;51.480;7.006;2023-04-27T01:01:58;100970.50;;;4.21;98.20
14269;BME280;7218;51.480;7.006;2023-04-27T01:04:25;100968.69;;;4.15;98.85
14269;BME280;7218;51.480;7.006;2023-04-27T01:06:53;100974.81;;;4.20;98.88
14269;BME280;7218;51.480;7.006;2023-04-27T01:09:20;100969.69;;;4.22;99.38
14269;BME280;7218;51.480;7.006;2023-04-27T01:11:47;100981.47;;;4.09;99.93
14269;BME280;7218;51.480;7.006;2023-04-27T01:14:13;100971.16;;;4.09;100.00
14269;BME280;7218;51.480;7.006;2023-04-27T01:16:41;100973.81;;;4.14;99.78
14269;BME280;7218;51.480;7.006;2023-04-27T01:19:08;100971.31;;;4.17;99.61
14269;BME280;7218;51.480;7.006;2023-04-27T01:21:34;100971.22;;;4.12;99.63
14269;BME280;7218;51.480;7.006;2023-04-27T01:24:04;100974.81;;;4.20;99.96
14269;BME280;7218;51.480;7.006;2023-04-27T01:26:31;100972.75;;;4.01;100.00
14269;BME280;7218;51.480;7.006;2023-04-27T01:28:58;100976.13;;;3.97;100.00
14269;BME280;7218;51.480;7.006;2023-04-27T01:31:24;100977.75;;;3.92;100.00
14269;BME280;7218;51.480;7.006;2023-04-27T01:33:51;100973.38;;;3.89;100.00
14269;BME280;7218;51.480;7.006;2023-04-27T01:36:17;100980.25;;;3.87;100.00
14269;BME280;7218;51.480;7.006;2023-04-27T01:38:44;100972.34;;;3.80;100.00
14269;BME280;7218;51.480;7.006;2023-04-27T01:41:11;100981.78;;;3.79;100.00
14269;BME280;7218;51.480;7.006;2023-04-27T01:43:38;100990.97;;;3.65;100.00
14269;BME280;7218;51.480;7.006;2023-04-27T01:46:06;100995.25;;;3.65;100.00
14269;BME280;7218;51.480;7.006;2023-04-27T01:48:33;100990.13;;;3.66;100.00
14269;BME280;7218;51.480;7.006;2023-04-27T01:51:00;100986.72;;;3.69;100.00
14269;BME280;7218;51.480;7.006;2023-04-27T01:53:26;100985.84;;;3.67;100.00
14269;BME280;7218;51.480;7.006;2023-04-27T01:55:53;100991.88;;;3.67;100.00
14269;BME280;7218;51.480;7.006;2023-04-27T01:58:21;100991.78;;;3.63;100.00
14269;BME280;7218;51.480;7.006;2023-04-27T02:00:48;100995.91;;;3.55;100.00
14269;BME280;7218;51.480;7.006;2023-04-27T02:03:14;100999.34;;;3.54;100.00
14269;BME280;7218;51.480;7.006;2023-04-27T02:05:40;101006.97;;;3.49;100.00
14269;BME280;7218;51.480;7.006;2023-04-27T02:08:07;101005.09;;;3.42;100.00
14269;BME280;7218;51.480;7.006;2023-04-27T02:10:34;101006.94;;;3.47;100.00
14269;BME280;7218;51.480;7.006;2023-04-27T02:13:01;101001.72;;;3.44;100.00
14269;BME280;7218;51.480;7.006;2023-04-27T02:15:29;101011.38;;;3.55;100.00
14269;BME280;7218;51.480;7.006;2023-04-27T02:17:56;101008.44;;;3.36;100.00
14269;BME280;7218;51.480;7.006;2023-04-27T02:20:22;101000.72;;;3.38;100.00
14269;BME280;7218;51.480;7.006;2023-04-27T02:22:49;100998.25;;;3.44;100.00
14269;BME280;7218;51.480;7.006;2023-04-27T02:25:18;101001.81;;;3.49;100.00
14269;BME280;7218;51.480;7.006;2023-04-27T02:27:44;101005.00;;;3.37;100.00
14269;BME280;7218;51.480;7.006;2023-04-27T02:30:11;101002.25;;;3.30;100.00
14269;BME280;7218;51.480;7.006;2023-04-27T02:32:40;100993.06;;;3.41;100.00
14269;BME280;7218;51.480;7.006;2023-04-27T02:35:07;101002.50;;;3.40;100.00
14269;BME280;7218;51.480;7.006;2023-04-27T02:37:34;101003.22;;;3.35;100.00
14269;BME280;7218;51.480;7.006;2023-04-27T02:40:01;100993.66;;;3.29;100.00
14269;BME280;7218;51.480;7.006;2023-04-27T02:42:28;100987.56;;;3.26;100.00
14269;BME280;7218;51.480;7.006;2023-04-27T02:44:55;100995.25;;;3.24;100.00
14269;BME280;7218;51.480;7.006;2023-04-27T02:47:21;100990.88;;;3.19;100.00
14269;BME280;7218;51.480;7.006;2023-04-27T02:49:49;100992.78;;;3.29;100.00
14269;BME280;7218;51.480;7.006;2023-04-27T02:52:15;100990.75;;;3.14;100.00
14269;BME280;7218;51.480;7.006;2023-04-27T02:54:42;100997.66;;;3.15;100.00
14269;BME280;7218;51.480;7.006;2023-04-27T02:57:08;100986.47;;;3.15;100.00
14269;BME280;7218;51.480;7.006;2023-04-27T02:59:35;100995.94;;;3.16;100.00
14269;BME280;7218;51.480;7.006;2023-04-27T03:02:01;100995.06;;;3.15;100.00
14269;BME280;7218;51.480;7.006;2023-04-27T03:04:28;100994.19;;;3.15;100.00
14269;BME280;7218;51.480;7.006;2023-04-27T03:06:55;100983.25;;;3.23;100.00
14269;BME280;7218;51.480;7.006;2023-04-27T03:09:22;100982.16;;;3.14;100.00
14269;BME280;7218;51.480;7.006;2023-04-27T03:11:48;100974.34;;;3.11;100.00
14269;BME280;7218;51.480;7.006;2023-04-27T03:14:15;100974.41;;;3.12;100.00
14269;BME280;7218;51.480;7.006;2023-04-27T03:16:41;100975.13;;;3.07;100.00
14269;BME280;7218;51.480;7.006;2023-04-27T03:19:08;100972.50;;;3.03;100.00
14269;BME280;7218;51.480;7.006;2023-04-27T03:21:34;100969.06;;;3.03;100.00
14269;BME280;7218;51.480;7.006;2023-04-27T03:24:03;100973.56;;;3.15;100.00
14269;BME280;7218;51.480;7.006;2023-04-27T03:26:29;100972.44;;;3.02;100.00
14269;BME280;7218;51.480;7.006;2023-04-27T03:28:56;100977.66;;;3.05;100.00
14269;BME280;7218;51.480;7.006;2023-04-27T03:31:23;100971.81;;;3.12;100.00
14269;BME280;7218;51.480;7.006;2023-04-27T03:33:49;100971.69;;;3.06;100.00
14269;BME280;7218;51.480;7.006;2023-04-27T03:36:16;100973.38;;;3.06;100.00
14269;BME280;7218;51.480;7.006;2023-04-27T03:38:42;100979.41;;;3.06;100.00
14269;BME280;7218;51.480;7.006;2023-04-27T03:41:10;100979.59;;;3.14;100.00
14269;BME280;7218;51.480;7.006;2023-04-27T03:43:36;100974.25;;;3.06;100.00
14269;BME280;7218;51.480;7.006;2023-04-27T03:46:03;100986.16;;;3.01;100.00
14269;BME280;7218;51.480;7.006;2023-04-27T03:48:29;100987.00;;;3.00;100.00
14269;BME280;7218;51.480;7.006;2023-04-27T03:50:56;100985.25;;;2.99;100.00
14269;BME280;7218;51.480;7.006;2023-04-27T03:53:22;100986.94;;;2.97;100.00
14269;BME280;7218;51.480;7.006;2023-04-27T03:55:49;100989.50;;;2.97;100.00
14269;BME280;7218;51.480;7.006;2023-04-27T03:58:17;100985.38;;;3.05;100.00
14269;BME280;7218;51.480;7.006;2023-04-27T04:00:44;100990.44;;;3.00;100.00
14269;BME280;7218;51.480;7.006;2023-04-27T04:03:10;101004.16;;;2.99;100.00
14269;BME280;7218;51.480;7.006;2023-04-27T04:05:37;101004.97;;;2.97;100.00
14269;BME280;7218;51.480;7.006;2023-04-27T04:08:03;101012.69;;;2.97;100.00
14269;BME280;7218;51.480;7.006;2023-04-27T04:10:30;101015.28;;;2.97;100.00
14269;BME280;7218;51.480;7.006;2023-04-27T04:12:57;101018.53;;;2.90;100.00
14269;BME280;7218;51.480;7.006;2023-04-27T04:15:24;101012.59;;;2.92;100.00
14269;BME280;7218;51.480;7.006;2023-04-27T04:17:51;101015.78;;;2.82;100.00
14269;BME280;7218;51.480;7.006;2023-04-27T04:20:17;101014.88;;;2.80;100.00
14269;BME280;7218;51.480;7.006;2023-04-27T04:22:44;101018.28;;;2.79;100.00
14269;BME280;7218;51.480;7.006;2023-04-27T04:25:11;101008.75;;;2.75;100.00
14269;BME280;7218;51.480;7.006;2023-04-27T04:27:38;101007.03;;;2.76;100.00
14269;BME280;7218;51.480;7.006;2023-04-27T04:30:05;101013.22;;;2.82;100.00
14269;BME280;7218;51.480;7.006;2023-04-27T04:32:34;101019.41;;;2.89;100.00
14269;BME280;7218;51.480;7.006;2023-04-27T04:35:02;101012.28;;;2.79;100.00
14269;BME280;7218;51.480;7.006;2023-04-27T04:37:31;101015.16;;;2.92;100.00
14269;BME280;7218;51.480;7.006;2023-04-27T04:39:58;101007.34;;;2.89;100.00
14269;BME280;7218;51.480;7.006;2023-04-27T04:42:25;101013.31;;;2.87;100.00
14269;BME280;7218;51.480;7.006;2023-04-27T04:44:51;101011.78;;;2.95;100.00
14269;BME280;7218;51.480;7.006;2023-04-27T04:47:18;101017.84;;;2.97;100.00
14269;BME280;7218;51.480;7.006;2023-04-27T04:49:46;101008.63;;;3.07;100.00
14269;BME280;7218;51.480;7.006;2023-04-27T04:52:12;101023.16;;;3.03;100.00
14269;BME280;7218;51.480;7.006;2023-04-27T04:54:38;101019.66;;;3.01;100.00
14269;BME280;7218;51.480;7.006;2023-04-27T04:57:05;101014.53;;;3.02;100.00
14269;BME280;7218;51.480;7.006;2023-04-27T04:59:32;101012.06;;;3.07;100.00
14269;BME280;7218;51.480;7.006;2023-04-27T05:01:59;101012.06;;;3.07;100.00
14269;BME280;7218;51.480;7.006;2023-04-27T05:04:25;101015.66;;;3.14;100.00
14269;BME280;7218;51.480;7.006;2023-04-27T05:06:53;101023.59;;;3.23;100.00
14269;BME280;7218;51.480;7.006;2023-04-27T05:09:19;101024.25;;;3.14;100.00
14269;BME280;7218;51.480;7.006;2023-04-27T05:11:46;101021.66;;;3.13;100.00
14269;BME280;7218;51.480;7.006;2023-04-27T05:14:12;101028.59;;;3.17;100.00
14269;BME280;7218;51.480;7.006;2023-04-27T05:16:39;101031.28;;;3.21;100.00
14269;BME280;7218;51.480;7.006;2023-04-27T05:19:05;101033.22;;;3.31;100.00
14269;BME280;7218;51.480;7.006;2023-04-27T05:21:32;101038.53;;;3.37;100.00
14269;BME280;7218;51.480;7.006;2023-04-27T05:24:00;101033.72;;;3.54;100.00
14269;BME280;7218;51.480;7.006;2023-04-27T05:26:26;101035.31;;;3.49;100.00
14269;BME280;7218;51.480;7.006;2023-04-27T05:28:53;101044.13;;;3.59;100.00
14269;BME280;7218;51.480;7.006;2023-04-27T05:31:19;101039.09;;;3.65;100.00
14269;BME280;7218;51.480;7.006;2023-04-27T05:33:46;101041.03;;;3.75;100.00
14269;BME280;7218;51.480;7.006;2023-04-27T05:36:12;101042.94;;;3.83;100.00
14269;BME280;7218;51.480;7.006;2023-04-27T05:38:39;101044.03;;;3.96;100.00
14269;BME280;7218;51.480;7.006;2023-04-27T05:41:07;101053.81;;;4.12;100.00
14269;BME280;7218;51.480;7.006;2023-04-27T05:43:33;101060.53;;;4.04;100.00
14269;BME280;7218;51.480;7.006;2023-04-27T05:46:02;101059.94;;;4.19;100.00
14269;BME280;7218;51.480;7.006;2023-04-27T05:48:28;101055.63;;;4.16;100.00
14269;BME280;7218;51.480;7.006;2023-04-27T05:50:58;101059.66;;;4.50;100.00
14269;BME280;7218;51.480;7.006;2023-04-27T05:53:25;101058.69;;;4.42;100.00
14269;BME280;7218;51.480;7.006;2023-04-27T05:55:52;101067.50;;;4.55;99.72
14269;BME280;7218;51.480;7.006;2023-04-27T05:58:20;101065.31;;;4.78;99.16
14269;BME280;7218;51.480;7.006;2023-04-27T06:00:47;101058.38;;;4.75;98.04
14269;BME280;7218;51.480;7.006;2023-04-27T06:03:13;101065.41;;;4.84;97.66
14269;BME280;7218;51.480;7.006;2023-04-27T06:05:39;101069.06;;;4.96;97.48
14269;BME280;7218;51.480;7.006;2023-04-27T06:08:06;101065.81;;;5.08;96.99
14269;BME280;7218;51.480;7.006;2023-04-27T06:10:33;101063.38;;;5.17;96.87
14269;BME280;7218;51.480;7.006;2023-04-27T06:12:59;101058.25;;;5.22;95.80
14269;BME280;7218;51.480;7.006;2023-04-27T06:15:27;101063.75;;;5.43;95.79
14269;BME280;7218;51.480;7.006;2023-04-27T06:17:53;101068.03;;;5.44;95.77
14269;BME280;7218;51.480;7.006;2023-04-27T06:20:20;101067.38;;;5.58;95.61
14269;BME280;7218;51.480;7.006;2023-04-27T06:22:47;101065.72;;;5.62;94.23
14269;BME280;7218;51.480;7.006;2023-04-27T06:25:13;101060.69;;;5.73;94.21
14269;BME280;7218;51.480;7.006;2023-04-27T06:27:40;101049.59;;;5.84;92.39
14269;BME280;7218;51.480;7.006;2023-04-27T06:30:07;101058.31;;;5.88;91.54
14269;BME280;7218;51.480;7.006;2023-04-27T06:32:35;101050.78;;;6.06;90.48
14269;BME280;7218;51.480;7.006;2023-04-27T06:35:02;101060.19;;;5.99;89.39
14269;BME280;7218;51.480;7.006;2023-04-27T06:37:28;101057.38;;;5.83;87.94
14269;BME280;7218;51.480;7.006;2023-04-27T06:39:55;101065.38;;;6.01;86.67
14269;BME280;7218;51.480;7.006;2023-04-27T06:42:21;101057.72;;;6.10;85.88
14269;BME280;7218;51.480;7.006;2023-04-27T06:44:48;101049.88;;;6.04;85.12
14269;BME280;7218;51.480;7.006;2023-04-27T06:47:14;101060.31;;;6.10;83.99
14269;BME280;7218;51.480;7.006;2023-04-27T06:49:42;101054.44;;;6.28;82.99
14269;BME280;7218;51.480;7.006;2023-04-27T06:52:09;101054.34;;;6.17;82.05
14269;BME280;7218;51.480;7.006;2023-04-27T06:54:35;101062.19;;;6.25;81.77
14269;BME280;7218;51.480;7.006;2023-04-27T06:57:01;101055.25;;;6.24;80.98
14269;BME280;7218;51.480;7.006;2023-04-27T06:59:28;101046.75;;;6.34;80.69
14269;BME280;7218;51.480;7.006;2023-04-27T07:01:55;101050.38;;;6.51;80.51
14269;BME280;7218;51.480;7.006;2023-04-27T07:04:21;101047.88;;;6.60;79.01
14269;BME280;7218;51.480;7.006;2023-04-27T07:06:49;101054.84;;;6.67;77.16
14269;BME280;7218;51.480;7.006;2023-04-27T07:09:15;101047.00;;;6.60;76.53
14269;BME280;7218;51.480;7.006;2023-04-27T07:11:42;101052.28;;;6.70;75.95
14269;BME280;7218;51.480;7.006;2023-04-27T07:14:08;101046.19;;;6.68;74.57
14269;BME280;7218;51.480;7.006;2023-04-27T07:16:35;101042.72;;;6.68;73.45
14269;BME280;7218;51.480;7.006;2023-04-27T07:19:01;101041.06;;;6.73;72.53
14269;BME280;7218;51.480;7.006;2023-04-27T07:21:28;101046.28;;;6.76;71.60
14269;BME280;7218;51.480;7.006;2023-04-27T07:23:56;101041.13;;;6.80;70.27
14269;BME280;7218;51.480;7.006;2023-04-27T07:26:22;101054.75;;;6.57;72.02
14269;BME280;7218;51.480;7.006;2023-04-27T07:28:49;101052.22;;;6.64;71.49
14269;BME280;7218;51.480;7.006;2023-04-27T07:31:16;101049.84;;;6.87;71.40
14269;BME280;7218;51.480;7.006;2023-04-27T07:33:42;101047.41;;;7.10;70.18
14269;BME280;7218;51.480;7.006;2023-04-27T07:36:09;101049.22;;;7.23;68.97
14269;BME280;7218;51.480;7.006;2023-04-27T07:38:35;101051.94;;;7.44;68.97
14269;BME280;7218;51.480;7.006;2023-04-27T07:41:04;101045.06;;;7.54;66.40
14269;BME280;7218;51.480;7.006;2023-04-27T07:43:31;101046.81;;;7.52;67.56
14269;BME280;7218;51.480;7.006;2023-04-27T07:45:58;101057.09;;;7.40;66.86
14269;BME280;7218;51.480;7.006;2023-04-27T07:48:24;101046.75;;;7.47;66.59
14269;BME280;7218;51.480;7.006;2023-04-27T07:50:50;101050.16;;;7.39;65.66
14269;BME280;7218;51.480;7.006;2023-04-27T07:53:17;101052.03;;;7.62;65.48
14269;BME280;7218;51.480;7.006;2023-04-27T07:55:44;101049.56;;;7.90;65.38
14269;BME280;7218;51.480;7.006;2023-04-27T07:58:12;101043.59;;;8.18;64.74
14269;BME280;7218;51.480;7.006;2023-04-27T08:00:38;101048.78;;;8.27;62.22
14269;BME280;7218;51.480;7.006;2023-04-27T08:03:05;101041.97;;;8.41;61.36
14269;BME280;7218;51.480;7.006;2023-04-27T08:05:32;101048.03;;;8.58;60.34
14269;BME280;7218;51.480;7.006;2023-04-27T08:07:58;101043.69;;;8.50;58.02
14269;BME280;7218;51.480;7.006;2023-04-27T08:10:25;101030.69;;;8.41;57.35
14269;BME280;7218;51.480;7.006;2023-04-27T08:12:51;101024.63;;;8.55;57.15
14269;BME280;7218;51.480;7.006;2023-04-27T08:15:19;101043.69;;;8.50;57.97
14269;BME280;7218;51.480;7.006;2023-04-27T08:17:46;101032.44;;;8.49;56.91
14269;BME280;7218;51.480;7.006;2023-04-27T08:20:12;101033.28;;;8.47;56.82
14269;BME280;7218;51.480;7.006;2023-04-27T08:22:39;101028.97;;;8.88;53.36
14269;BME280;7218;51.480;7.006;2023-04-27T08:25:06;101017.72;;;8.76;53.65
14269;BME280;7218;51.480;7.006;2023-04-27T08:27:35;101022.03;;;8.92;55.23
14269;BME280;7218;51.480;7.006;2023-04-27T08:30:02;101027.19;;;9.19;53.66
14269;BME280;7218;51.480;7.006;2023-04-27T08:32:30;101035.84;;;9.36;54.03
14269;BME280;7218;51.480;7.006;2023-04-27T08:34:57;101017.56;;;9.47;52.90
14269;BME280;7218;51.480;7.006;2023-04-27T08:37:23;101015.00;;;9.42;50.85
14269;BME280;7218;51.480;7.006;2023-04-27T08:39:49;101017.59;;;9.44;50.06
14269;BME280;7218;51.480;7.006;2023-04-27T08:42:16;101015.00;;;9.45;50.52
14269;BME280;7218;51.480;7.006;2023-04-27T08:44:43;101010.56;;;9.69;50.02
14269;BME280;7218;51.480;7.006;2023-04-27T08:47:11;101010.59;;;9.64;48.79
14269;BME280;7218;51.480;7.006;2023-04-27T08:49:39;101011.13;;;10.31;48.53
14269;BME280;7218;51.480;7.006;2023-04-27T08:52:10;101000.50;;;10.57;47.34
14269;BME280;7218;51.480;7.006;2023-04-27T08:54:37;101008.22;;;10.71;46.55
14269;BME280;7218;51.480;7.006;2023-04-27T08:57:07;101005.19;;;11.18;45.42
14269;BME280;7218;51.480;7.006;2023-04-27T08:59:34;101005.78;;;11.44;45.25
14269;BME280;7218;51.480;7.006;2023-04-27T09:02:02;101002.03;;;11.65;45.38
14269;BME280;7218;51.480;7.006;2023-04-27T09:04:36;100993.13;;;11.84;44.06
14269;BME280;7218;51.480;7.006;2023-04-27T09:07:10;100997.06;;;12.13;42.85
14269;BME280;7218;51.480;7.006;2023-04-27T09:09:37;100994.38;;;12.19;43.06
14269;BME280;7218;51.480;7.006;2023-04-27T09:12:13;100991.00;;;12.67;42.20
14269;BME280;7218;51.480;7.006;2023-04-27T09:14:40;100989.78;;;12.86;42.07
14269;BME280;7218;51.480;7.006;2023-04-27T09:17:07;100990.56;;;12.91;40.77
14269;BME280;7218;51.480;7.006;2023-04-27T09:19:33;100990.25;;;13.11;39.21
14269;BME280;7218;51.480;7.006;2023-04-27T09:22:05;100986.09;;;13.00;39.32
14269;BME280;7218;51.480;7.006;2023-04-27T09:24:34;100979.59;;;13.20;38.48
14269;BME280;7218;51.480;7.006;2023-04-27T09:27:01;100979.56;;;13.23;39.34
14269;BME280;7218;51.480;7.006;2023-04-27T09:29:32;100988.22;;;13.27;37.26
14269;BME280;7218;51.480;7.006;2023-04-27T09:31:59;100985.41;;;13.36;37.88
14269;BME280;7218;51.480;7.006;2023-04-27T09:34:37;100985.97;;;13.93;37.36
14269;BME280;7218;51.480;7.006;2023-04-27T09:37:04;100982.63;;;13.87;36.93
14269;BME280;7218;51.480;7.006;2023-04-27T09:39:31;100978.13;;;14.30;36.20
14269;BME280;7218;51.480;7.006;2023-04-27T09:42:00;100977.00;;;14.43;36.60
14269;BME280;7218;51.480;7.006;2023-04-27T09:44:27;100973.97;;;13.83;35.32
14269;BME280;7218;51.480;7.006;2023-04-27T09:46:57;100977.88;;;13.64;36.00
14269;BME280;7218;51.480;7.006;2023-04-27T09:49:25;100977.97;;;13.59;35.79
14269;BME280;7218;51.480;7.006;2023-04-27T09:51:51;100969.59;;;13.84;36.52
14269;BME280;7218;51.480;7.006;2023-04-27T09:54:19;100964.94;;;13.96;34.21
14269;BME280;7218;51.480;7.006;2023-04-27T09:56:54;100966.38;;;14.48;36.32
14269;BME280;7218;51.480;7.006;2023-04-27T09:59:39;100967.75;;;14.96;35.25
14269;BME280;7218;51.480;7.006;2023-04-27T10:02:14;100965.94;;;15.31;34.10
14269;BME280;7218;51.480;7.006;2023-04-27T10:07:38;100963.97;;;15.06;33.50
14269;BME280;7218;51.480;7.006;2023-04-27T10:10:05;100963.06;;;15.09;32.70
14269;BME280;7218;51.480;7.006;2023-04-27T10:12:33;100957.28;;;15.27;32.16
14269;BME280;7218;51.480;7.006;2023-04-27T10:15:12;100944.91;;;15.63;33.39
14269;BME280;7218;51.480;7.006;2023-04-27T10:17:47;100945.75;;;15.93;32.39
14269;BME280;7218;51.480;7.006;2023-04-27T10:20:13;100946.16;;;16.07;32.17
14269;BME280;7218;51.480;7.006;2023-04-27T10:22:42;100942.78;;;16.58;32.49
14269;BME280;7218;51.480;7.006;2023-04-27T10:25:12;100936.56;;;16.60;32.71
14269;BME280;7218;51.480;7.006;2023-04-27T10:27:41;100940.66;;;16.94;32.43
14269;BME280;7218;51.480;7.006;2023-04-27T10:30:11;100934.59;;;17.16;31.71
14269;BME280;7218;51.480;7.006;2023-04-27T10:32:49;100935.13;;;17.49;31.76
14269;BME280;7218;51.480;7.006;2023-04-27T10:35:15;100933.84;;;17.13;30.21
14269;BME280;7218;51.480;7.006;2023-04-27T10:37:42;100916.94;;;17.18;33.19
14269;BME280;7218;51.480;7.006;2023-04-27T10:40:11;100918.75;;;17.41;31.23
14269;BME280;7218;51.480;7.006;2023-04-27T10:42:40;100915.72;;;17.75;31.05
14269;BME280;7218;51.480;7.006;2023-04-27T10:45:07;100911.94;;;17.82;30.09
14269;BME280;7218;51.480;7.006;2023-04-27T10:47:41;100916.72;;;17.73;29.52
14269;BME280;7218;51.480;7.006;2023-04-27T10:50:08;100919.34;;;17.25;29.69
14269;BME280;7218;51.480;7.006;2023-04-27T10:52:39;100914.66;;;17.56;30.80
14269;BME280;7218;51.480;7.006;2023-04-27T10:55:13;100920.47;;;17.42;29.05
14269;BME280;7218;51.480;7.006;2023-04-27T10:57:48;100920.22;;;17.25;29.56
14269;BME280;7218;51.480;7.006;2023-04-27T11:00:20;100931.09;;;17.64;29.00
14269;BME280;7218;51.480;7.006;2023-04-27T11:02:49;100920.53;;;17.64;29.04
14269;BME280;7218;51.480;7.006;2023-04-27T11:05:20;100926.94;;;16.05;30.20
14269;BME280;7218;51.480;7.006;2023-04-27T11:07:47;100910.41;;;17.29;31.80
14269;BME280;7218;51.480;7.006;2023-04-27T11:10:15;100912.13;;;17.78;28.68
14269;BME280;7218;51.480;7.006;2023-04-27T11:12:42;100915.44;;;16.62;29.15
14269;BME280;7218;51.480;7.006;2023-04-27T11:15:09;100912.22;;;17.51;30.10
14269;BME280;7218;51.480;7.006;2023-04-27T11:17:36;100916.88;;;16.44;29.51
14269;BME280;7218;51.480;7.006;2023-04-27T11:20:04;100915.66;;;17.05;29.67
14269;BME280;7218;51.480;7.006;2023-04-27T11:22:33;100918.31;;;17.29;27.13
14269;BME280;7218;51.480;7.006;2023-04-27T11:25:00;100907.13;;;17.70;28.17
14269;BME280;7218;51.480;7.006;2023-04-27T11:27:35;100915.72;;;17.04;28.12
14269;BME280;7218;51.480;7.006;2023-04-27T11:30:03;100914.91;;;17.27;28.32
14269;BME280;7218;51.480;7.006;2023-04-27T11:32:31;100916.94;;;17.67;26.87
14269;BME280;7218;51.480;7.006;2023-04-27T11:34:58;100907.75;;;17.98;26.31
14269;BME280;7218;51.480;7.006;2023-04-27T11:37:26;100909.03;;;18.32;26.87
14269;BME280;7218;51.480;7.006;2023-04-27T11:39:53;100908.13;;;18.33;26.53
14269;BME280;7218;51.480;7.006;2023-04-27T11:42:22;100892.06;;;19.00;27.48
14269;BME280;7218;51.480;7.006;2023-04-27T11:44:51;100893.72;;;19.60;28.01
14269;BME280;7218;51.480;7.006;2023-04-27T11:47:18;100899.72;;;20.37;27.57
14269;BME280;7218;51.480;7.006;2023-04-27T11:49:46;100894.03;;;20.96;25.73
14269;BME280;7218;51.480;7.006;2023-04-27T11:52:13;100896.50;;;19.75;24.07
14269;BME280;7218;51.480;7.006;2023-04-27T11:54:47;100894.34;;;19.84;24.13
14269;BME280;7218;51.480;7.006;2023-04-27T11:57:13;100883.41;;;19.91;23.97
14269;BME280;7218;51.480;7.006;2023-04-27T11:59:40;100888.28;;;20.36;24.34
14269;BME280;7218;51.480;7.006;2023-04-27T12:02:07;100885.72;;;20.52;23.95
14269;BME280;7218;51.480;7.006;2023-04-27T12:04:34;100876.47;;;20.93;24.66
14269;BME280;7218;51.480;7.006;2023-04-27T12:07:01;100885.31;;;21.42;23.40
14269;BME280;7218;51.480;7.006;2023-04-27T12:09:28;100884.03;;;22.28;24.31
14269;BME280;7218;51.480;7.006;2023-04-27T12:11:56;100870.06;;;23.69;23.80
14269;BME280;7218;51.480;7.006;2023-04-27T12:14:22;100871.03;;;23.68;23.21
14269;BME280;7218;51.480;7.006;2023-04-27T12:16:49;100870.81;;;23.85;22.82
14269;BME280;7218;51.480;7.006;2023-04-27T12:19:15;100876.22;;;21.15;23.15
14269;BME280;7218;51.480;7.006;2023-04-27T12:21:42;100873.38;;;21.51;22.31
14269;BME280;7218;51.480;7.006;2023-04-27T12:24:09;100872.44;;;22.15;21.45
14269;BME280;7218;51.480;7.006;2023-04-27T12:26:35;100864.78;;;22.68;20.79
14269;BME280;7218;51.480;7.006;2023-04-27T12:29:03;100847.56;;;23.18;20.60
14269;BME280;7218;51.480;7.006;2023-04-27T12:31:30;100857.66;;;21.15;21.30
14269;BME280;7218;51.480;7.006;2023-04-27T12:33:56;100858.19;;;20.72;22.20
14269;BME280;7218;51.480;7.006;2023-04-27T12:36:23;100861.03;;;21.34;22.25
14269;BME280;7218;51.480;7.006;2023-04-27T12:38:51;100860.47;;;19.54;24.17
14269;BME280;7218;51.480;7.006;2023-04-27T12:41:17;100849.09;;;20.24;24.30
14269;BME280;7218;51.480;7.006;2023-04-27T12:43:44;100853.06;;;21.01;24.08
14269;BME280;7218;51.480;7.006;2023-04-27T12:46:12;100853.97;;;19.04;25.24
14269;BME280;7218;51.480;7.006;2023-04-27T12:48:39;100848.63;;;20.52;25.05
14269;BME280;7218;51.480;7.006;2023-04-27T12:51:05;100852.44;;;21.92;23.70
14269;BME280;7218;51.480;7.006;2023-04-27T12:53:32;100843.28;;;22.73;22.15
14269;BME280;7218;51.480;7.006;2023-04-27T12:55:59;100845.00;;;22.74;21.46
14269;BME280;7218;51.480;7.006;2023-04-27T12:58:26;100839.75;;;22.72;21.79
14269;BME280;7218;51.480;7.006;2023-04-27T13:00:54;100847.56;;;22.46;21.51
14269;BME280;7218;51.480;7.006;2023-04-27T13:03:23;100845.50;;;23.09;20.39
14269;BME280;7218;51.480;7.006;2023-04-27T13:05:49;100836.63;;;23.65;19.91